createdAt,value
2024-04-23T00:06:57.542Z,0
2024-04-23T00:17:35.938Z,0
2024-04-23T00:22:54.871Z,0
2024-04-23T00:33:33.620Z,0
2024-04-23T00:38:52.365Z,0
2024-04-23T00:49:31.049Z,0
2024-04-23T01:00:08.892Z,0
2024-04-23T01:05:27.485Z,0
2024-04-23T01:16:06.709Z,0
2024-04-23T01:21:25.801Z,0
2024-04-23T01:32:05.128Z,0
2024-04-23T01:42:42.920Z,0
2024-04-23T01:48:02.271Z,0
2024-04-23T01:58:41.049Z,0
2024-04-23T02:14:38.355Z,0
2024-04-23T02:25:19.485Z,0
2024-04-23T02:30:36.575Z,0
2024-04-23T02:41:15.600Z,0
2024-04-23T02:46:34.933Z,0
2024-04-23T02:57:13.707Z,0
2024-04-23T03:07:53.005Z,0
2024-04-23T03:23:50.860Z,0
2024-04-23T03:29:10.255Z,0
2024-04-23T03:39:48.720Z,0
2024-04-23T03:50:28.202Z,0
2024-04-23T03:55:48.228Z,0.0006
2024-04-23T04:06:26.989Z,0.0108
2024-04-23T04:11:46.082Z,0.0233
2024-04-23T04:17:05.889Z,0.0296
2024-04-23T04:33:03.249Z,0.0455
2024-04-23T04:43:43.098Z,0.0578
2024-04-23T04:49:01.361Z,0.0607
2024-04-23T04:59:39.652Z,0.0643
2024-04-23T05:15:38.593Z,0.0936
2024-04-23T05:26:17.908Z,0.1277
2024-04-23T05:42:15.949Z,0.1339
2024-04-23T05:47:35.609Z,0.1274
2024-04-23T05:58:13.897Z,0.1289
2024-04-23T06:08:53.243Z,0.129
2024-04-23T06:14:12.671Z,0.1278
2024-04-23T06:24:51.041Z,0.1274
2024-04-23T06:30:09.446Z,0.1231
2024-04-23T06:40:52.976Z,0.1243
2024-04-23T06:51:26.735Z,0.1286
2024-04-23T06:56:45.451Z,0.1303
2024-04-23T07:07:24.220Z,0.137
2024-04-23T07:12:43.441Z,0.1316
2024-04-23T07:23:22.359Z,0.14
2024-04-23T07:29:56.531Z,0.141
2024-04-23T07:49:58.286Z,0.174
2024-04-23T07:55:17.526Z,0.2134
2024-04-23T08:05:56.562Z,1.1096
2024-04-23T08:11:15.148Z,0.9523
2024-04-23T08:21:54.361Z,0.9633
2024-04-23T08:28:28.541Z,1.054
2024-04-23T08:32:33.382Z,1.1752
2024-04-23T08:37:52.692Z,1.1877
2024-04-23T08:48:33.419Z,0.5877
2024-04-23T09:04:26.491Z,1.1591
2024-04-23T09:15:05.759Z,1.3058
2024-04-23T09:31:03.169Z,1.0496
2024-04-23T09:36:21.892Z,0.8557
2024-04-23T09:47:00.053Z,1.3621
2024-04-23T10:02:57.738Z,1.4144
2024-04-23T10:13:36.645Z,1.3721
2024-04-23T10:29:35.838Z,1.5203
2024-04-23T10:34:54.966Z,1.6729
2024-04-23T10:45:33.177Z,1.5245
2024-04-23T10:56:09.562Z,1.5039
2024-04-23T11:06:47.934Z,1.6421
2024-04-23T11:12:07.521Z,1.1838
2024-04-23T11:22:45.107Z,1.7088
2024-04-23T11:33:23.786Z,2.0449
2024-04-23T11:38:43.194Z,0.6375
2024-04-23T11:49:22.289Z,1.1289
2024-04-23T11:54:41.932Z,1.2794
2024-04-23T12:05:20.878Z,0.7561
2024-04-23T12:10:39.629Z,1.3557
2024-04-23T12:21:18.114Z,2.2769
2024-04-23T12:31:56.692Z,2.1842
2024-04-23T12:37:15.526Z,2.2837
2024-04-23T12:47:54.901Z,1.9642
2024-04-23T12:53:14.029Z,2.1904
2024-04-23T13:03:52.019Z,2.7267
2024-04-23T13:14:30.525Z,0.4812
2024-04-23T13:19:50.291Z,2.746
2024-04-23T13:30:28.504Z,1.8632
2024-04-23T13:35:47.901Z,0.7738
2024-04-23T13:46:26.246Z,1.3573
2024-04-23T14:02:24.405Z,0.2773
2024-04-23T14:13:03.117Z,1.3891
2024-04-23T14:18:23.154Z,1.4014
2024-04-23T14:29:00.691Z,1.7056
2024-04-23T14:34:20.351Z,0.2864
2024-04-23T14:45:33.477Z,0.2346
2024-04-23T14:50:52.974Z,1.4322
2024-04-23T15:01:31.160Z,0.2272
2024-04-23T15:06:49.547Z,0.1819
2024-04-23T15:17:27.979Z,0.4382
2024-04-23T15:33:26.109Z,0.6638
2024-04-23T15:44:05.350Z,0.185
2024-04-23T15:49:25.407Z,0.2688
2024-04-23T16:00:02.761Z,0.1599
2024-04-23T16:05:22.249Z,0.1669
2024-04-23T16:16:01.196Z,0.3435
2024-04-23T16:26:39.040Z,0.2812
2024-04-23T16:31:58.140Z,0.2726
2024-04-23T16:42:37.733Z,0.1754
2024-04-23T16:47:56.079Z,0.1541
2024-04-23T16:58:34.292Z,0.1187
2024-04-23T17:03:53.305Z,0.1073
2024-04-23T17:14:31.832Z,0.0954
2024-04-23T17:25:10.073Z,0.0845
2024-04-23T17:30:29.615Z,0.0834
2024-04-23T17:41:10.150Z,0.0697
2024-04-23T17:51:45.720Z,0.0643
2024-04-23T18:07:43.283Z,0.0467
2024-04-23T18:18:22.263Z,0.0358
2024-04-23T18:23:41.360Z,0.0326
2024-04-23T18:34:20.488Z,0.0102
2024-04-23T18:50:19.083Z,0
2024-04-23T19:00:56.165Z,0
2024-04-23T19:06:15.880Z,0
2024-04-23T19:16:54.478Z,0
2024-04-23T19:22:14.596Z,0
2024-04-23T19:32:53.343Z,0
2024-04-23T19:43:38.823Z,0
2024-04-23T19:48:50.609Z,0
2024-04-23T19:59:28.711Z,0
2024-04-23T20:04:47.558Z,0
2024-04-23T20:15:26.725Z,0
2024-04-23T20:26:04.990Z,0
2024-04-23T20:31:24.472Z,0
2024-04-23T20:47:23.819Z,0
2024-04-23T20:58:03.429Z,0
2024-04-23T21:13:59.925Z,0
2024-04-23T21:24:37.977Z,0
2024-04-23T21:29:58.238Z,0
2024-04-23T21:40:36.466Z,0
2024-04-23T21:51:14.433Z,0
2024-04-23T21:56:33.787Z,0
2024-04-23T22:07:12.880Z,0
2024-04-23T22:12:31.051Z,0
2024-04-23T22:23:09.645Z,0
2024-04-23T22:39:07.090Z,0
2024-04-23T22:49:46.448Z,0
2024-04-23T22:55:06.785Z,0
2024-04-23T23:05:45.022Z,0
2024-04-23T23:11:05.134Z,0
2024-04-23T23:21:42.528Z,0
2024-04-23T23:32:20.976Z,0
2024-04-23T23:37:39.957Z,0
2024-04-23T23:48:18.403Z,0
2024-04-23T23:53:38.077Z,0
